Time;durP1;ratioP1;P1;durP2;ratioP2;P2;SDS_P1;SDS_P2;PMS_P1;PMS_P2;Temp;Humidity;BMP_temperature;BMP_pressure;BME280_temperature;BME280_humidity;BME280_pressure;Samples;Min_cycle;Max_cycle;Signal;HPM_P1;HPM_P2
2023/11/22 00:00:52;;;;;;;4.13;3.60;;;7.10;99.90;;;8.61;68.01;97944.78;5013111;28;20052;-63
2023/11/22 00:03:20;;;;;;;5.23;2.90;;;7.00;99.90;;;8.60;68.18;97940.44;5013045;28;20049;-64
2023/11/22 00:05:47;;;;;;;3.93;2.97;;;7.00;99.20;;;8.58;67.87;97944.22;5013336;28;20400;-63
2023/11/22 00:08:15;;;;;;;4.77;3.10;;;7.00;99.70;;;8.40;67.80;97954.69;5013030;28;20064;-63
2023/11/22 00:10:44;;;;;;;5.03;3.33;;;6.90;96.40;;;8.34;67.57;97948.13;5013069;28;20038;-63
2023/11/22 00:13:11;;;;;;;6.37;3.60;;;6.80;98.30;;;8.37;67.81;97953.13;5012716;28;20726;-63
2023/11/22 00:15:39;;;;;;;5.97;3.97;;;6.80;98.70;;;8.40;67.88;97946.72;5013436;28;20038;-63
2023/11/22 00:18:07;;;;;;;4.97;3.40;;;6.90;98.80;;;8.42;67.74;97958.88;5012181;28;20049;-63
2023/11/22 00:20:34;;;;;;;5.47;3.20;;;6.90;97.20;;;8.40;67.51;97966.13;5012969;28;20411;-63
2023/11/22 00:23:03;;;;;;;7.83;3.70;;;6.90;96.60;;;8.43;67.38;97962.38;5011390;28;20451;-63
2023/11/22 00:25:31;;;;;;;5.47;3.57;;;6.90;97.10;;;8.33;66.87;97969.47;5012917;28;20499;-63
2023/11/22 00:27:58;;;;;;;8.47;4.67;;;6.80;94.90;;;8.38;67.07;97973.38;5011723;28;20048;-62
2023/11/22 00:30:26;;;;;;;7.37;5.07;;;6.70;97.30;;;8.42;66.85;97981.94;5011780;28;20061;-63
2023/11/22 00:32:53;;;;;;;11.57;5.57;;;6.70;96.70;;;8.35;66.38;97983.44;5010236;28;20046;-63
2023/11/22 00:35:21;;;;;;;6.77;4.07;;;6.50;94.00;;;8.21;66.29;97987.34;5011355;28;20050;-62
2023/11/22 00:37:49;;;;;;;11.97;4.30;;;6.40;96.00;;;8.08;66.30;97999.06;5011886;28;20038;-62
2023/11/22 00:40:16;;;;;;;10.93;6.03;;;6.20;95.80;;;8.07;66.36;98000.00;5011612;28;20054;-62
2023/11/22 00:42:44;;;;;;;11.13;6.93;;;6.20;97.50;;;8.07;66.34;97997.38;5011331;28;20050;-62
2023/11/22 00:45:12;;;;;;;10.43;5.60;;;6.30;96.20;;;7.99;66.46;97991.91;5012329;28;20049;-62
2023/11/22 00:47:40;;;;;;;20.63;9.73;;;6.20;97.00;;;8.02;65.96;97996.09;5011493;28;20100;-62
2023/11/22 00:50:08;;;;;;;20.10;10.20;;;6.30;96.30;;;7.97;65.93;97993.84;5011374;28;20396;-62
2023/11/22 00:52:36;;;;;;;15.20;6.77;;;6.30;95.20;;;7.92;66.33;97995.25;5011484;28;20046;-62
2023/11/22 00:55:05;;;;;;;14.83;8.13;;;6.30;95.20;;;7.87;66.27;97993.84;5011042;28;20064;-62
2023/11/22 00:57:32;;;;;;;19.20;9.37;;;6.20;93.10;;;7.87;66.15;98007.09;5012546;28;20048;-62
2023/11/22 01:00:00;;;;;;;25.03;10.20;;;6.20;95.60;;;7.89;66.33;98014.91;5012180;28;20052;-63
2023/11/22 01:02:27;;;;;;;22.47;9.97;;;6.30;95.90;;;7.94;66.22;98014.50;5011680;28;20041;-62
2023/11/22 01:04:56;;;;;;;16.13;8.47;;;6.30;94.40;;;7.93;66.09;98008.38;5011240;28;20050;-62
2023/11/22 01:07:24;;;;;;;24.93;12.20;;;6.30;94.80;;;7.94;66.14;98023.28;5011540;28;20518;-62
2023/11/22 01:09:53;;;;;;;34.27;16.60;;;6.20;95.10;;;7.99;66.16;98023.72;5012035;28;20045;-62
2023/11/22 01:12:20;;;;;;;19.90;9.40;;;6.30;95.20;;;8.02;66.03;98025.25;5012227;28;20042;-62
2023/11/22 01:14:48;;;;;;;18.13;9.17;;;6.30;94.80;;;8.01;65.99;98029.72;5008418;28;20046;-63
2023/11/22 01:17:16;;;;;;;21.33;10.13;;;6.30;94.60;;;8.02;65.98;98023.44;5012053;28;20042;-62
2023/11/22 01:19:43;;;;;;;44.53;22.10;;;6.30;94.90;;;8.01;65.98;98026.25;5010724;28;20053;-62
2023/11/22 01:22:11;;;;;;;18.47;8.87;;;6.30;94.70;;;8.01;66.07;98037.69;4992928;28;20058;-62
2023/11/22 01:24:38;;;;;;;7.93;4.53;;;6.30;94.60;;;8.00;65.81;98030.69;5011615;28;20046;-63
2023/11/22 01:27:06;;;;;;;5.67;3.60;;;6.20;93.70;;;8.02;65.50;98035.88;5010851;28;20080;-63
2023/11/22 01:29:34;;;;;;;7.30;4.93;;;6.10;94.90;;;8.03;65.63;98041.03;5002610;28;20423;-62
2023/11/22 01:32:02;;;;;;;5.07;3.73;;;6.10;95.50;;;7.99;65.29;98044.94;5011165;28;20493;-62
2023/11/22 01:34:30;;;;;;;5.00;3.93;;;6.00;94.20;;;7.92;65.10;98045.59;5010548;28;20053;-63
2023/11/22 01:36:58;;;;;;;8.77;6.83;;;5.90;94.90;;;7.90;65.25;98053.69;5010907;28;20050;-62
2023/11/22 01:39:26;;;;;;;7.03;4.37;;;5.90;95.50;;;7.88;65.02;98055.63;4994953;28;20069;-62
2023/11/22 01:41:54;;;;;;;8.03;4.57;;;5.90;94.60;;;7.80;65.24;98058.13;5012203;28;20046;-62
2023/11/22 01:44:21;;;;;;;7.33;4.57;;;5.80;95.00;;;7.77;64.96;98066.34;5010905;28;20057;-63
2023/11/22 01:46:49;;;;;;;6.90;4.10;;;5.80;94.10;;;7.79;64.95;98075.00;5010333;28;20086;-62
2023/11/22 01:49:17;;;;;;;6.97;4.10;;;5.90;93.90;;;7.76;64.87;98078.75;4993840;28;20046;-62
2023/11/22 01:51:45;;;;;;;9.30;5.67;;;5.80;94.20;;;7.71;64.94;98083.59;5011323;28;20062;-62
2023/11/22 01:54:14;;;;;;;9.77;6.93;;;5.90;94.80;;;7.74;65.24;98088.66;4993778;28;20049;-63
2023/11/22 01:56:41;;;;;;;4.50;3.40;;;5.90;95.40;;;7.58;64.65;98089.13;5010129;28;20034;-62
2023/11/22 01:59:09;;;;;;;5.83;3.93;;;5.80;87.80;;;7.51;64.00;98087.97;4993527;28;20049;-63
2023/11/22 02:01:38;;;;;;;4.70;3.77;;;5.80;89.30;;;7.46;63.80;98095.47;5010371;28;20518;-62
2023/11/22 02:04:07;;;;;;;5.37;4.00;;;5.80;87.80;;;7.35;63.02;98099.03;5009631;28;20057;-62
2023/11/22 02:06:35;;;;;;;6.23;3.83;;;5.70;85.10;;;7.32;63.16;98098.44;5011073;28;20046;-63
2023/11/22 02:09:03;;;;;;;4.37;3.33;;;5.60;86.50;;;7.29;63.36;98100.41;5009881;28;20053;-62
2023/11/22 02:11:31;;;;;;;5.53;3.63;;;5.70;86.50;;;7.28;62.62;98105.81;5002698;28;20503;-62
2023/11/22 02:13:58;;;;;;;4.97;2.93;;;5.70;84.30;;;7.20;62.12;98106.47;5009661;28;20049;-62
2023/11/22 02:16:27;;;;;;;4.97;3.47;;;5.60;82.20;;;7.18;62.33;98108.41;5009697;28;20072;-62
2023/11/22 02:18:55;;;;;;;4.57;3.47;;;5.60;84.20;;;7.22;62.69;98116.94;5010229;28;20419;-62
2023/11/22 02:21:23;;;;;;;4.20;2.93;;;5.50;85.10;;;7.19;62.51;98117.16;4993676;28;20549;-63
2023/11/22 02:23:50;;;;;;;4.73;3.33;;;5.40;85.50;;;7.19;62.40;98106.56;5009483;28;20530;-63
2023/11/22 02:26:18;;;;;;;5.37;3.17;;;5.40;88.20;;;7.19;62.68;98115.38;4994003;28;20557;-62
2023/11/22 02:28:47;;;;;;;4.30;3.10;;;5.30;87.50;;;7.21;62.76;98110.81;5010097;28;20042;-63
2023/11/22 02:31:17;;;;;;;5.43;3.10;;;5.40;87.80;;;7.16;62.63;98110.34;5009786;28;20057;-62
2023/11/22 02:33:45;;;;;;;4.80;2.93;;;5.30;87.50;;;7.13;62.05;98123.81;5009184;28;20053;-62
2023/11/22 02:36:13;;;;;;;5.73;3.27;;;5.20;86.80;;;7.04;62.45;98133.38;5011080;28;20510;-63
2023/11/22 02:38:40;;;;;;;6.60;3.30;;;5.20;87.30;;;7.05;62.35;98128.91;5009869;28;20469;-63
2023/11/22 02:41:09;;;;;;;5.73;3.50;;;5.30;87.60;;;6.90;62.07;98123.06;5009968;28;20400;-62
2023/11/22 02:43:36;;;;;;;5.07;3.10;;;5.10;84.80;;;6.83;61.68;98137.78;5009537;28;20538;-62
2023/11/22 02:46:04;;;;;;;5.03;3.27;;;5.00;85.30;;;6.78;62.26;98135.50;5010673;28;20054;-63
2023/11/22 02:48:33;;;;;;;4.80;3.70;;;5.00;85.90;;;6.68;62.12;98147.81;5009987;28;20396;-62
2023/11/22 02:51:01;;;;;;;5.97;4.00;;;4.80;86.60;;;6.66;62.57;98147.09;5009617;28;20046;-62
2023/11/22 02:53:29;;;;;;;5.10;3.67;;;4.80;88.80;;;6.61;62.75;98151.91;5009383;28;20049;-63
2023/11/22 02:56:00;;;;;;;5.33;3.33;;;4.80;88.30;;;6.62;62.69;98146.50;5011299;28;20042;-62
2023/11/22 02:58:31;;;;;;;5.50;3.87;;;4.80;88.30;;;6.67;63.01;98159.38;5014392;28;20053;-63
2023/11/22 03:00:59;;;;;;;4.70;3.60;;;4.90;88.60;;;6.65;63.02;98159.50;5013538;28;20050;-62
2023/11/22 03:03:27;;;;;;;7.80;3.83;;;4.90;87.70;;;6.63;62.29;98164.06;5012635;28;20050;-62
2023/11/22 03:05:55;;;;;;;5.27;3.70;;;5.00;86.50;;;6.64;62.97;98165.75;5013336;28;20050;-63
2023/11/22 03:08:22;;;;;;;5.57;3.70;;;5.00;87.50;;;6.64;62.68;98163.09;5014478;28;20049;-62
2023/11/22 03:10:55;;;;;;;6.27;3.80;;;5.00;87.40;;;6.70;63.22;98173.19;5013305;28;20045;-62
2023/11/22 03:13:22;;;;;;;6.23;4.17;;;5.00;87.50;;;6.70;62.77;98178.47;5013573;28;20046;-62
2023/11/22 03:15:50;;;;;;;5.37;3.77;;;4.80;86.80;;;6.68;62.51;98188.34;5013145;28;20062;-62
2023/11/22 03:18:21;;;;;;;7.50;4.10;;;4.80;87.30;;;6.64;62.52;98189.56;5013047;28;20057;-62
2023/11/22 03:20:53;;;;;;;5.07;3.50;;;4.70;89.00;;;6.60;62.40;98185.47;5012674;28;20050;-62
2023/11/22 03:23:21;;;;;;;5.73;4.03;;;4.60;88.90;;;6.58;62.50;98189.22;5012267;28;20430;-62
2023/11/22 03:25:49;;;;;;;5.93;3.50;;;4.50;89.50;;;6.58;62.59;98182.09;5013763;28;20038;-62
2023/11/22 03:28:17;;;;;;;5.23;3.80;;;4.50;91.70;;;6.62;63.15;98177.41;5012910;28;20060;-62
2023/11/22 03:30:45;;;;;;;6.80;4.27;;;4.60;92.10;;;6.66;63.32;98182.31;5013601;28;20542;-62
2023/11/22 03:33:14;;;;;;;6.77;3.63;;;4.60;92.30;;;6.59;63.21;98180.28;5013523;28;20046;-63
2023/11/22 03:35:42;;;;;;;6.10;4.13;;;4.50;92.30;;;6.52;63.12;98190.53;5013999;28;20042;-62
2023/11/22 03:38:10;;;;;;;5.47;3.57;;;4.50;92.90;;;6.41;63.52;98188.75;5012810;28;20507;-62
2023/11/22 03:40:38;;;;;;;5.40;3.50;;;4.40;90.50;;;6.26;63.62;98189.94;5013713;28;20041;-62
2023/11/22 03:43:08;;;;;;;5.30;3.70;;;4.30;91.60;;;6.26;63.65;98206.69;4996155;28;20523;-62
2023/11/22 03:45:35;;;;;;;8.20;3.63;;;4.30;92.00;;;6.27;63.32;98202.22;5013580;28;20422;-62
2023/11/22 03:48:03;;;;;;;5.17;3.70;;;4.30;92.30;;;6.27;63.38;98204.88;5012372;28;20053;-62
2023/11/22 03:50:31;;;;;;;5.07;3.60;;;4.30;93.00;;;6.25;63.04;98212.06;5012067;28;20049;-62
2023/11/22 03:52:58;;;;;;;5.10;3.40;;;4.30;91.30;;;6.16;62.74;98216.25;5013164;28;20045;-62
2023/11/22 03:55:26;;;;;;;5.83;3.80;;;4.30;89.50;;;6.21;62.96;98223.84;5012259;28;20046;-63
2023/11/22 03:57:53;;;;;;;6.57;3.93;;;4.40;90.10;;;6.11;63.17;98229.03;5013486;28;20411;-62
2023/11/22 04:00:21;;;;;;;5.97;3.37;;;4.20;89.60;;;6.16;62.82;98221.56;5012871;28;20090;-62
2023/11/22 04:02:49;;;;;;;4.40;3.20;;;4.30;89.50;;;6.09;63.25;98225.66;5013375;28;20073;-62
2023/11/22 04:05:19;;;;;;;8.50;4.10;;;4.30;89.60;;;6.13;63.27;98219.16;5012636;28;20058;-62
2023/11/22 04:07:47;;;;;;;4.83;3.30;;;4.30;89.30;;;6.19;63.48;98226.63;5013304;28;20052;-62
2023/11/22 04:10:15;;;;;;;4.30;3.20;;;4.50;89.30;;;6.21;62.63;98223.84;5013180;28;20042;-60
2023/11/22 04:12:42;;;;;;;4.47;2.80;;;4.50;87.30;;;6.14;63.02;98225.28;5013286;28;20042;-61
2023/11/22 04:15:10;;;;;;;5.40;3.27;;;4.30;87.20;;;6.06;62.55;98236.44;5007900;28;20050;-62
2023/11/22 04:17:39;;;;;;;6.17;3.37;;;4.20;87.00;;;6.02;62.40;98235.00;5012992;28;20040;-62
2023/11/22 04:20:10;;;;;;;5.17;3.30;;;4.20;86.30;;;5.95;62.24;98234.63;5011982;28;20057;-61
2023/11/22 04:22:40;;;;;;;4.83;3.23;;;4.10;87.70;;;6.01;62.23;98235.97;5011991;28;20056;-61
2023/11/22 04:25:08;;;;;;;6.10;3.97;;;4.10;88.30;;;5.99;62.58;98236.09;5012833;28;20053;-62
2023/11/22 04:27:36;;;;;;;6.20;4.13;;;4.10;87.40;;;6.01;62.05;98231.53;5013131;28;20090;-61
2023/11/22 04:30:09;;;;;;;6.10;3.13;;;4.20;88.00;;;6.02;62.46;98251.69;5012877;28;20049;-63
2023/11/22 04:32:37;;;;;;;4.30;3.23;;;4.10;87.30;;;6.03;62.43;98255.19;5012875;28;20045;-61
2023/11/22 04:35:06;;;;;;;4.80;3.40;;;4.20;87.20;;;6.01;62.09;98254.47;5012408;28;20068;-61
2023/11/22 04:37:33;;;;;;;4.80;3.23;;;4.20;86.30;;;5.96;62.18;98264.56;5012706;28;20061;-61
2023/11/22 04:40:03;;;;;;;3.63;2.90;;;4.10;85.60;;;5.94;61.63;98269.91;5011607;28;20034;-62
2023/11/22 04:42:31;;;;;;;7.03;2.87;;;4.10;86.50;;;5.92;61.49;98275.31;5012554;28;20401;-62
2023/11/22 04:44:59;;;;;;;4.33;3.07;;;4.00;85.80;;;5.96;61.67;98278.59;5012717;28;20046;-62
2023/11/22 04:47:26;;;;;;;4.53;2.73;;;4.10;86.90;;;5.85;61.25;98279.38;5011679;28;20050;-62
2023/11/22 04:49:54;;;;;;;5.27;3.20;;;3.90;85.20;;;5.90;61.65;98279.88;5012276;28;20491;-62
2023/11/22 04:52:21;;;;;;;4.23;2.73;;;4.00;87.20;;;5.88;62.02;98281.81;5012240;28;20505;-62
2023/11/22 04:54:49;;;;;;;4.93;3.10;;;4.00;86.30;;;5.87;61.59;98295.13;5012043;28;20046;-61
2023/11/22 04:57:17;;;;;;;5.43;2.63;;;3.90;86.20;;;5.81;61.43;98304.34;5012162;28;20042;-61
2023/11/22 04:59:45;;;;;;;4.03;2.70;;;3.80;85.80;;;5.83;61.93;98304.25;5012237;28;20038;-61
2023/11/22 05:02:13;;;;;;;4.03;2.90;;;3.90;86.30;;;5.77;61.20;98300.25;5012473;28;20053;-61
2023/11/22 05:04:42;;;;;;;4.10;2.90;;;3.80;86.70;;;5.81;62.25;98306.16;5010987;28;20050;-62
2023/11/22 05:07:09;;;;;;;3.30;2.60;;;3.90;86.50;;;5.81;61.75;98303.53;5012139;28;20057;-62
2023/11/22 05:09:37;;;;;;;4.63;2.63;;;3.90;87.60;;;5.85;62.16;98313.72;5012124;28;20053;-62
2023/11/22 05:12:05;;;;;;;4.70;2.77;;;3.90;86.80;;;5.84;62.08;98305.94;5012124;28;20033;-62
2023/11/22 05:14:33;;;;;;;3.50;2.87;;;3.90;86.10;;;5.82;62.24;98316.63;5011879;28;20050;-62
2023/11/22 05:17:00;;;;;;;5.07;3.17;;;3.90;85.70;;;5.80;62.06;98323.81;5012111;28;20053;-62
2023/11/22 05:19:28;;;;;;;4.33;2.63;;;3.80;86.90;;;5.78;61.44;98322.22;5009568;28;20443;-62
2023/11/22 05:21:55;;;;;;;4.80;3.17;;;3.80;86.60;;;5.73;61.17;98319.94;5011899;28;20072;-62
2023/11/22 05:24:23;;;;;;;5.47;3.30;;;3.80;85.80;;;5.78;61.25;98331.03;5011548;28;20052;-63
2023/11/22 05:26:51;;;;;;;8.00;5.00;;;3.80;85.10;;;5.76;61.42;98327.66;5011970;28;20046;-62
2023/11/22 05:29:19;;;;;;;18.43;11.53;;;3.80;84.60;;;5.78;60.98;98328.38;5011805;28;20476;-63
2023/11/22 05:31:46;;;;;;;16.00;7.00;;;3.80;85.20;;;5.83;61.22;98328.03;5011447;28;20522;-62
2023/11/22 05:34:14;;;;;;;5.17;4.23;;;3.90;84.80;;;5.71;60.77;98322.69;5010243;28;20529;-62
2023/11/22 05:36:42;;;;;;;7.63;3.80;;;3.80;83.60;;;5.67;61.35;98320.41;5011825;28;20602;-61
2023/11/22 05:39:09;;;;;;;5.97;3.87;;;3.70;84.40;;;5.69;61.24;98331.69;5011767;28;20053;-62
2023/11/22 05:41:37;;;;;;;6.30;3.00;;;3.70;84.90;;;5.73;60.60;98325.22;5011856;28;20057;-62
2023/11/22 05:44:06;;;;;;;6.40;3.00;;;3.70;85.60;;;5.74;61.05;98324.28;5009898;28;20053;-62
2023/11/22 05:46:33;;;;;;;4.33;2.90;;;3.80;85.00;;;5.70;60.80;98331.59;5011605;28;20450;-62
2023/11/22 05:49:01;;;;;;;5.00;3.67;;;3.70;84.30;;;5.72;60.54;98337.59;5011546;28;20053;-62
2023/11/22 05:51:28;;;;;;;5.40;3.40;;;3.70;84.60;;;5.68;61.04;98330.88;5011213;28;20049;-63
2023/11/22 05:53:56;;;;;;;6.03;3.30;;;3.70;85.10;;;5.63;60.84;98337.44;5009975;28;20499;-62
2023/11/22 05:56:24;;;;;;;5.60;2.87;;;3.70;85.50;;;5.63;60.80;98338.28;5011599;28;20073;-61
2023/11/22 05:58:51;;;;;;;5.97;3.33;;;3.70;86.40;;;5.68;61.14;98351.13;5003325;28;20038;-61
2023/11/22 06:01:19;;;;;;;5.70;3.07;;;3.80;85.50;;;5.64;60.72;98350.53;5011628;28;20293;-63
2023/11/22 06:03:48;;;;;;;5.23;2.93;;;3.70;84.90;;;5.65;60.89;98354.84;5010832;28;20041;-61
2023/11/22 06:06:17;;;;;;;7.47;3.67;;;3.70;86.00;;;5.63;60.55;98364.69;5011475;28;20052;-62
2023/11/22 06:08:44;;;;;;;4.00;2.70;;;3.70;85.70;;;5.60;61.19;98370.19;5011156;28;20042;-61
2023/11/22 06:11:13;;;;;;;6.13;4.37;;;3.80;84.40;;;5.59;60.77;98378.25;5011193;28;20042;-62
2023/11/22 06:13:46;;;;;;;5.77;3.90;;;3.70;84.80;;;5.57;61.25;98380.16;5010744;28;20037;-63
2023/11/22 06:16:13;;;;;;;8.17;4.47;;;3.70;84.60;;;5.56;60.75;98381.09;5010851;28;20061;-64
2023/11/22 06:18:43;;;;;;;5.33;3.60;;;3.70;84.20;;;5.55;60.67;98390.00;5010034;28;20042;-63
2023/11/22 06:21:11;;;;;;;5.20;3.20;;;3.60;84.20;;;5.55;61.59;98387.34;5011091;28;20050;-62
2023/11/22 06:23:39;;;;;;;4.00;2.97;;;3.60;84.70;;;5.51;61.30;98392.84;5011106;28;20050;-63
2023/11/22 06:26:06;;;;;;;5.27;3.67;;;3.60;83.60;;;5.44;61.78;98403.97;5010826;28;20194;-62
2023/11/22 06:28:35;;;;;;;5.37;3.33;;;3.60;85.10;;;5.46;61.19;98402.06;5009732;28;20522;-63
2023/11/22 06:31:03;;;;;;;4.40;3.07;;;3.60;84.00;;;5.42;61.11;98408.50;5013378;28;20072;-62
2023/11/22 06:33:30;;;;;;;5.80;3.33;;;3.60;84.00;;;5.38;61.37;98402.59;5013472;28;20431;-62
2023/11/22 06:35:58;;;;;;;4.80;3.43;;;3.50;84.50;;;5.39;61.08;98406.94;5015190;28;20042;-62
2023/11/22 06:38:25;;;;;;;4.60;2.70;;;3.60;83.40;;;5.28;60.50;98412.97;5014918;28;20049;-63
2023/11/22 06:40:53;;;;;;;4.73;2.90;;;3.50;82.70;;;5.19;60.04;98405.69;5014849;28;20038;-62
2023/11/22 06:43:21;;;;;;;6.13;3.90;;;3.40;83.30;;;5.15;60.54;98413.97;5014423;28;20050;-63
2023/11/22 06:45:48;;;;;;;4.87;3.60;;;3.40;82.90;;;5.15;60.03;98414.78;5013834;28;20079;-65
2023/11/22 06:48:16;;;;;;;4.33;3.07;;;3.40;82.00;;;5.08;60.82;98413.56;5014812;28;20421;-64
2023/11/22 06:50:45;;;;;;;3.30;2.50;;;3.30;82.40;;;5.17;60.88;98422.63;5013652;28;20424;-67
2023/11/22 06:53:13;;;;;;;4.10;2.53;;;3.40;82.30;;;5.11;59.58;98423.88;5014416;28;20496;-65
2023/11/22 06:55:40;;;;;;;5.23;3.27;;;3.40;81.00;;;5.12;59.75;98431.69;5014618;28;20050;-64
2023/11/22 06:58:08;;;;;;;4.10;3.47;;;3.40;80.80;;;5.14;59.92;98431.59;5015146;28;20042;-63
2023/11/22 07:00:36;;;;;;;5.03;2.63;;;3.40;79.90;;;5.08;59.63;98439.97;5014633;28;20396;-64
2023/11/22 07:03:03;;;;;;;4.63;2.70;;;3.30;79.80;;;5.03;58.99;98434.97;5013065;28;20459;-64
2023/11/22 07:05:31;;;;;;;4.47;3.07;;;3.20;78.90;;;4.99;58.66;98445.88;5013617;28;20050;-65
2023/11/22 07:07:59;;;;;;;5.20;2.70;;;3.20;78.50;;;5.01;59.11;98436.06;5006705;28;20053;-63
2023/11/22 07:10:26;;;;;;;5.37;2.63;;;3.30;78.50;;;5.04;59.13;98433.19;5014385;28;20057;-64
2023/11/22 07:12:55;;;;;;;5.17;3.07;;;3.30;77.70;;;5.05;59.10;98443.63;5013168;28;20049;-65
2023/11/22 07:15:23;;;;;;;3.00;2.20;;;3.40;78.10;;;5.02;58.83;98450.91;5011250;28;20492;-63
2023/11/22 07:17:51;;;;;;;21.20;9.50;;;3.30;77.90;;;5.05;58.32;98456.81;5013594;28;20493;-62
2023/11/22 07:20:18;;;;;;;9.73;6.33;;;3.40;75.70;;;5.07;58.43;98460.22;5014143;28;20057;-62
2023/11/22 07:22:47;;;;;;;6.40;3.40;;;3.40;76.00;;;4.99;57.87;98464.34;5014187;28;20060;-62
2023/11/22 07:25:20;;;;;;;6.03;2.83;;;3.30;75.00;;;4.89;58.03;98458.84;5013937;28;20408;-64
2023/11/22 07:27:48;;;;;;;3.90;2.50;;;3.10;75.80;;;4.80;57.27;98483.22;5014099;28;20523;-66
2023/11/22 07:30:19;;;;;;;3.97;2.60;;;3.00;76.40;;;4.82;57.69;98484.81;5013864;28;20057;-63
2023/11/22 07:32:48;;;;;;;5.63;2.80;;;3.00;76.80;;;4.76;57.78;98487.84;5013734;28;20057;-63
2023/11/22 07:35:16;;;;;;;3.87;2.40;;;3.00;75.40;;;4.71;57.46;98496.09;5012596;28;20052;-64
2023/11/22 07:37:44;;;;;;;4.53;2.77;;;2.90;74.00;;;4.61;56.74;98496.81;5006076;28;20046;-63
2023/11/22 07:40:13;;;;;;;5.70;2.40;;;2.80;75.70;;;4.66;57.46;98500.00;5013944;28;20053;-63
2023/11/22 07:42:43;;;;;;;4.80;2.73;;;2.80;74.60;;;4.68;56.99;98506.00;5012024;28;20495;-65
2023/11/22 07:45:11;;;;;;;5.33;2.87;;;2.80;75.70;;;4.67;57.28;98512.22;5013662;28;20049;-63
2023/11/22 07:47:40;;;;;;;7.90;3.67;;;2.80;74.90;;;4.63;56.55;98506.28;5013134;28;20046;-62
2023/11/22 07:50:11;;;;;;;5.10;3.53;;;2.80;74.00;;;4.67;56.81;98513.09;5013806;28;20049;-62
2023/11/22 07:52:41;;;;;;;5.33;3.63;;;2.80;73.80;;;4.62;56.07;98509.91;5013322;28;20097;-62
2023/11/22 07:55:09;;;;;;;7.43;3.43;;;2.80;73.50;;;4.66;56.60;98505.25;5013178;28;20042;-62
2023/11/22 07:57:41;;;;;;;4.37;2.93;;;2.90;73.10;;;4.66;56.61;98506.09;5012871;28;20038;-63
2023/11/22 08:00:10;;;;;;;7.97;3.00;;;2.90;72.30;;;4.68;55.73;98498.94;5013603;28;20046;-63
2023/11/22 08:02:38;;;;;;;4.37;2.73;;;2.90;72.80;;;4.70;56.18;98489.13;5012152;28;20086;-60
2023/11/22 08:05:09;;;;;;;4.63;3.20;;;2.90;72.70;;;4.74;56.75;98493.22;5013099;28;20046;-62
2023/11/22 08:07:40;;;;;;;4.33;3.13;;;3.00;72.10;;;4.73;56.47;98501.28;5013393;28;20415;-61
2023/11/22 08:10:20;;;;;;;4.47;2.73;;;2.90;71.70;;;4.70;55.49;98499.66;5006138;28;20077;-62
2023/11/22 08:12:49;;;;;;;8.10;4.63;;;2.90;71.20;;;4.63;56.04;98501.03;5013012;28;20415;-64
2023/11/22 08:15:20;;;;;;;5.77;3.80;;;2.80;73.90;;;4.73;56.67;98509.19;5013192;28;20042;-64
2023/11/22 08:17:47;;;;;;;5.03;3.23;;;2.90;74.30;;;4.80;56.81;98509.59;5012442;28;20049;-63
2023/11/22 08:20:17;;;;;;;4.33;2.43;;;3.00;73.50;;;4.81;55.76;98506.00;5012935;28;20068;-62
2023/11/22 08:22:49;;;;;;;5.83;3.10;;;3.10;73.10;;;4.83;56.77;98509.41;5012947;28;20418;-63
2023/11/22 08:25:18;;;;;;;6.03;4.17;;;3.20;72.90;;;4.74;56.47;98505.59;5011627;28;20418;-61
2023/11/22 08:27:46;;;;;;;4.67;2.63;;;3.10;73.20;;;4.80;55.98;98509.59;5012980;28;20053;-62
2023/11/22 08:30:15;;;;;;;5.53;3.10;;;3.10;73.00;;;4.80;55.83;98502.53;5012902;28;20049;-63
2023/11/22 08:32:44;;;;;;;7.00;3.17;;;3.10;72.20;;;4.80;56.26;98512.25;5011410;28;20046;-63
2023/11/22 08:35:21;;;;;;;6.00;3.50;;;3.00;72.00;;;4.80;55.73;98505.16;5013267;28;20077;-53
2023/11/22 08:37:53;;;;;;;5.90;3.20;;;3.00;72.10;;;4.78;55.61;98507.06;5012753;28;20053;-52
2023/11/22 08:40:20;;;;;;;5.63;3.60;;;3.10;72.60;;;4.80;56.34;98509.59;5012570;28;20392;-50
2023/11/22 08:42:49;;;;;;;5.60;3.47;;;3.10;72.80;;;4.86;55.71;98506.53;5012615;28;20046;-54
2023/11/22 08:45:17;;;;;;;13.87;8.30;;;3.10;72.40;;;4.88;56.32;98521.31;5006369;28;20050;-54
2023/11/22 08:47:45;;;;;;;7.60;4.83;;;3.00;73.70;;;4.97;56.68;98514.59;5009999;28;20054;-54
2023/11/22 08:50:15;;;;;;;6.70;4.13;;;3.10;73.80;;;5.03;56.13;98522.06;5011559;28;20050;-52
2023/11/22 08:52:44;;;;;;;5.73;3.30;;;3.20;73.30;;;5.05;55.71;98529.91;5009274;28;20042;-52
2023/11/22 08:55:14;;;;;;;6.40;3.70;;;3.30;70.50;;;5.06;56.13;98519.25;5010132;28;20050;-54
2023/11/22 08:57:42;;;;;;;5.33;3.73;;;3.30;72.00;;;5.08;56.25;98521.78;5011924;28;20130;-53
2023/11/22 09:00:11;;;;;;;5.77;3.73;;;3.40;72.30;;;5.08;55.86;98521.78;5012287;28;20526;-51
2023/11/22 09:02:39;;;;;;;5.10;3.83;;;3.30;69.90;;;5.10;55.65;98519.88;5011734;28;20098;-52
2023/11/22 09:05:08;;;;;;;4.90;3.57;;;3.20;70.40;;;5.15;55.45;98511.63;5011769;28;20061;-53
2023/11/22 09:07:37;;;;;;;6.43;3.33;;;3.30;72.20;;;5.17;55.20;98515.00;5012262;28;20423;-53
2023/11/22 09:10:09;;;;;;;5.70;2.80;;;3.30;71.10;;;5.19;55.57;98506.03;5011874;28;20052;-52
2023/11/22 09:12:40;;;;;;;5.40;2.87;;;3.40;70.70;;;5.24;55.83;98511.84;5011807;28;20116;-50
2023/11/22 09:15:17;;;;;;;6.27;3.20;;;3.40;71.10;;;5.23;55.65;98512.78;5010332;28;20487;-51
2023/11/22 09:17:46;;;;;;;6.77;3.47;;;3.50;70.80;;;5.23;56.01;98514.56;5012102;28;20046;-53
2023/11/22 09:20:16;;;;;;;6.90;3.67;;;3.60;71.10;;;5.25;55.24;98512.69;5011934;28;20603;-52
2023/11/22 09:22:50;;;;;;;6.07;3.10;;;3.70;69.90;;;5.25;55.87;98510.91;5010668;28;20049;-53
2023/11/22 09:25:20;;;;;;;5.28;3.25;;;3.60;69.80;;;5.29;55.55;98511.50;5004541;28;20513;-50
2023/11/22 09:27:58;;;;;;;6.20;4.00;;;3.70;69.90;;;5.23;55.05;98515.41;5011676;28;20509;-53
2023/11/22 09:30:32;;;;;;;5.30;3.67;;;3.50;68.70;;;5.18;54.66;98519.34;5011489;28;20045;-50
2023/11/22 09:33:12;;;;;;;5.53;3.40;;;3.30;67.60;;;5.07;54.18;98530.63;5008180;28;20144;-50
2023/11/22 09:35:42;;;;;;;7.13;4.00;;;3.20;69.60;;;5.00;54.65;98529.34;5004973;28;20041;-50
2023/11/22 09:38:15;;;;;;;7.00;3.70;;;3.10;69.90;;;5.05;54.65;98538.66;5010657;28;20038;-50
2023/11/22 09:40:46;;;;;;;7.00;3.95;;;3.30;70.60;;;5.09;54.55;98534.00;5005758;28;20053;-51
2023/11/22 09:43:17;;;;;;;7.50;3.03;;;3.30;69.30;;;5.08;53.92;98540.25;5010944;28;20427;-50
2023/11/22 09:45:50;;;;;;;5.97;3.28;;;3.20;68.80;;;5.07;54.72;98547.31;5011940;28;20076;-54
2023/11/22 09:48:26;;;;;;;6.23;3.60;;;3.20;70.80;;;5.12;55.24;98552.28;5011589;28;20121;-54
2023/11/22 09:51:34;;;;;;;5.43;3.53;;;3.40;69.90;;;5.21;55.18;98556.09;5011549;28;20050;-51
2023/11/22 09:54:07;;;;;;;5.27;3.33;;;3.40;70.00;;;5.36;55.05;98556.84;5000756;28;20061;-54
2023/11/22 09:56:38;;;;;;;6.35;4.05;;;3.60;70.80;;;5.40;54.65;98563.59;5007130;28;20047;-51
2023/11/22 09:59:08;;;;;;;6.90;3.23;;;3.60;68.80;;;5.45;54.96;98569.41;5008837;28;20054;-53
2023/11/22 10:01:38;;;;;;;11.20;6.17;;;3.70;69.70;;;5.51;55.31;98571.63;5010197;28;20053;-51
2023/11/22 10:04:06;;;;;;;7.70;5.27;;;3.80;70.10;;;5.55;55.22;98572.25;5010804;28;20061;-52
2023/11/22 10:06:35;;;;;;;6.87;4.10;;;3.90;68.30;;;5.57;54.67;98568.53;5011268;28;20049;-49
2023/11/22 10:09:08;;;;;;;7.20;4.10;;;4.00;67.20;;;5.49;53.21;98573.53;5010936;28;20045;-50
2023/11/22 10:11:43;;;;;;;6.50;4.10;;;3.80;67.20;;;5.52;54.68;98578.56;5011455;28;20050;-52
2023/11/22 10:14:10;;;;;;;5.63;3.43;;;3.80;68.70;;;5.61;54.97;98585.03;5009147;28;20046;-50
2023/11/22 10:16:38;;;;;;;6.87;4.30;;;3.90;69.70;;;5.68;54.35;98583.63;5007956;28;20038;-53
2023/11/22 10:19:06;;;;;;;5.47;3.73;;;4.00;69.00;;;5.71;54.47;98575.50;5010733;28;20061;-50
2023/11/22 10:21:34;;;;;;;6.70;4.17;;;4.00;69.20;;;5.75;54.72;98578.78;5011170;28;20038;-50
2023/11/22 10:24:03;;;;;;;5.93;3.53;;;4.10;68.10;;;5.75;53.83;98569.03;5009731;28;20046;-51
2023/11/22 10:26:31;;;;;;;8.03;3.87;;;4.00;67.70;;;5.75;53.70;98563.75;5010904;28;20049;-53
2023/11/22 10:29:00;;;;;;;4.97;3.53;;;4.00;68.00;;;5.71;53.81;98570.22;5010850;28;20400;-51
2023/11/22 10:31:28;;;;;;;6.20;4.20;;;3.90;68.30;;;5.67;54.27;98574.88;5010044;28;20050;-52
2023/11/22 10:33:57;;;;;;;8.97;5.37;;;3.90;69.20;;;5.69;53.98;98577.41;5010417;28;20427;-51
2023/11/22 10:36:26;;;;;;;8.13;5.90;;;4.00;69.70;;;5.72;54.36;98575.41;5009734;28;20054;-51
2023/11/22 10:38:54;;;;;;;8.57;5.80;;;4.10;69.00;;;5.72;55.13;98567.47;5010760;28;20053;-51